PWSweather.com
Personal Weather Stations
Station Observations
PICKERING
North Yorkshire, PickeringGB

North YorkshirePickeringGB

Lat: 54.2494, Lon: -0.7725

Elevation: 192

Station Type: Oregon Scientific WMR100

http://www.yorkshirewalker.co.uk/weather/

High Low Average
Temperature 39.0°F3.9°C 23.5°F-4.7°C 30.3°F-0.9°C
Dew Point 33.8°F1.0°C 17.6°F-8.0°C 24.4°F-4.2°C
Winds 1.6 mph 2.6 kmh Calm Calm Calm NECalm NE
Wind Gusts 2.9 mph4.7 kmh -- 1.0 mph1.6 kmh
Humidity 84% 78% 81%
Pressure 29.59 in1002.0 mb 29.27 in991.2 mb -
Precipitation 0.00 in0.0 mm - -
Hour Temp Dew Point Humidity Winds Wind Gusts Pressure Precip Precip Rate Daily Precip Total
12:00 AM 23.5°F-4.7°C 17.6°F-8.0°C 80% 0.5 mph NE0.8 kmh NE 2.5 mph4.0 kmh 29.45 in997.3 mb 0.00 in0.0 mm 0.00 in0.0 mm 0.00 in0.0 mm
12:05 AM 23.7°F-4.6°C 17.6°F-8.0°C 80% 0.8 mph ENE1.3 kmh ENE 2.7 mph4.3 kmh 29.41 in995.9 mb 0.00 in0.0 mm 0.00 in0.0 mm 0.00 in0.0 mm
12:10 AM 23.9°F-4.5°C 17.6°F-8.0°C 80% 0.8 mph ENE1.3 kmh ENE 2.7 mph4.3 kmh 29.41 in995.9 mb 0.00 in0.0 mm 0.00 in0.0 mm 0.00 in0.0 mm
12:15 AM 23.9°F-4.5°C 17.6°F-8.0°C 80% 0.3 mph ENE0.5 kmh ENE 1.1 mph1.8 kmh 29.41 in995.9 mb 0.00 in0.0 mm 0.00 in0.0 mm 0.00 in0.0 mm
12:20 AM 24.3°F-4.3°C 17.6°F-8.0°C 80% 0.4 mph NE0.6 kmh NE 1.3 mph2.1 kmh 29.41 in995.9 mb 0.00 in0.0 mm 0.00 in0.0 mm 0.00 in0.0 mm
12:25 AM 24.3°F-4.3°C 17.6°F-8.0°C 80% 0.3 mph NE0.5 kmh NE 1.3 mph2.1 kmh 29.41 in995.9 mb 0.00 in0.0 mm 0.00 in0.0 mm 0.00 in0.0 mm
12:30 AM 24.4°F-4.2°C 19.4°F-7.0°C 80% Calm Calm -- 29.41 in995.9 mb 0.00 in0.0 mm 0.00 in0.0 mm 0.00 in0.0 mm
12:35 AM 24.4°F-4.2°C 19.4°F-7.0°C 80% Calm Calm -- 29.41 in995.9 mb 0.00 in0.0 mm 0.00 in0.0 mm 0.00 in0.0 mm
12:40 AM 24.3°F-4.3°C 17.6°F-8.0°C 80% Calm Calm -- 29.41 in995.9 mb 0.00 in0.0 mm 0.00 in0.0 mm 0.00 in0.0 mm
12:45 AM 24.4°F-4.2°C 19.4°F-7.0°C 80% Calm Calm -- 29.41 in995.9 mb 0.00 in0.0 mm 0.00 in0.0 mm 0.00 in0.0 mm
12:50 AM 24.6°F-4.1°C 19.4°F-7.0°C 80% Calm Calm -- 29.41 in995.9 mb 0.00 in0.0 mm 0.00 in0.0 mm 0.00 in0.0 mm
12:55 AM 24.8°F-4.0°C 19.4°F-7.0°C 80% 0.1 mph NE0.2 kmh NE 0.9 mph1.4 kmh 29.41 in995.9 mb 0.00 in0.0 mm 0.00 in0.0 mm 0.00 in0.0 mm
01:00 AM 25.0°F-3.9°C 19.4°F-7.0°C 80% 0.1 mph NE0.2 kmh NE 0.9 mph1.4 kmh 29.41 in995.9 mb 0.00 in0.0 mm 0.00 in0.0 mm 0.00 in0.0 mm
01:05 AM 25.0°F-3.9°C 19.4°F-7.0°C 80% 0.1 mph ENE0.2 kmh ENE 1.1 mph1.8 kmh 29.36 in994.2 mb 0.00 in0.0 mm 0.00 in0.0 mm 0.00 in0.0 mm
01:10 AM 25.0°F-3.9°C 19.4°F-7.0°C 80% 0.1 mph ENE0.2 kmh ENE 1.1 mph1.8 kmh 29.36 in994.2 mb 0.00 in0.0 mm 0.00 in0.0 mm 0.00 in0.0 mm
01:15 AM 25.2°F-3.8°C 19.4°F-7.0°C 80% Calm Calm -- 29.36 in994.2 mb 0.00 in0.0 mm 0.00 in0.0 mm 0.00 in0.0 mm
01:20 AM 25.3°F-3.7°C 19.4°F-7.0°C 80% 0.1 mph NE0.2 kmh NE 0.9 mph1.4 kmh 29.41 in995.9 mb 0.00 in0.0 mm 0.00 in0.0 mm 0.00 in0.0 mm
01:25 AM 25.5°F-3.6°C 19.4°F-7.0°C 80% 0.4 mph NE0.6 kmh NE 1.1 mph1.8 kmh 29.41 in995.9 mb 0.00 in0.0 mm 0.00 in0.0 mm 0.00 in0.0 mm
01:30 AM 25.3°F-3.7°C 19.4°F-7.0°C 80% 0.3 mph NE0.5 kmh NE 1.1 mph1.8 kmh 29.41 in995.9 mb 0.00 in0.0 mm 0.00 in0.0 mm 0.00 in0.0 mm
01:35 AM 25.5°F-3.6°C 19.4°F-7.0°C 80% Calm Calm -- 29.41 in995.9 mb 0.00 in0.0 mm 0.00 in0.0 mm 0.00 in0.0 mm
01:40 AM 25.7°F-3.5°C 19.4°F-7.0°C 80% 0.1 mph NE0.2 kmh NE 0.9 mph1.4 kmh 29.41 in995.9 mb 0.00 in0.0 mm 0.00 in0.0 mm 0.00 in0.0 mm
01:45 AM 25.7°F-3.5°C 19.4°F-7.0°C 80% 0.2 mph NE0.3 kmh NE 0.9 mph1.4 kmh 29.41 in995.9 mb 0.00 in0.0 mm 0.00 in0.0 mm 0.00 in0.0 mm
01:50 AM 25.7°F-3.5°C 19.4°F-7.0°C 80% 0.1 mph NE0.2 kmh NE 0.9 mph1.4 kmh 29.41 in995.9 mb 0.00 in0.0 mm 0.00 in0.0 mm 0.00 in0.0 mm
01:55 AM 25.9°F-3.4°C 19.4°F-7.0°C 80% Calm Calm -- 29.41 in995.9 mb 0.00 in0.0 mm 0.00 in0.0 mm 0.00 in0.0 mm
02:00 AM 25.9°F-3.4°C 19.4°F-7.0°C 80% Calm Calm -- 29.41 in995.9 mb 0.00 in0.0 mm 0.00 in0.0 mm 0.00 in0.0 mm
02:05 AM 25.9°F-3.4°C 19.4°F-7.0°C 81% Calm Calm -- 29.33 in993.2 mb 0.00 in0.0 mm 0.00 in0.0 mm 0.00 in0.0 mm
02:10 AM 25.9°F-3.4°C 19.4°F-7.0°C 80% Calm Calm -- 29.33 in993.2 mb 0.00 in0.0 mm 0.00 in0.0 mm 0.00 in0.0 mm
02:15 AM 25.9°F-3.4°C 19.4°F-7.0°C 80% Calm Calm -- 29.33 in993.2 mb 0.00 in0.0 mm 0.00 in0.0 mm 0.00 in0.0 mm
02:20 AM 26.1°F-3.3°C 19.4°F-7.0°C 81% Calm Calm -- 29.41 in995.9 mb 0.00 in0.0 mm 0.00 in0.0 mm 0.00 in0.0 mm
02:25 AM 26.1°F-3.3°C 19.4°F-7.0°C 80% Calm Calm -- 29.41 in995.9 mb 0.00 in0.0 mm 0.00 in0.0 mm 0.00 in0.0 mm
02:30 AM 26.2°F-3.2°C 19.4°F-7.0°C 81% Calm Calm -- 29.41 in995.9 mb 0.00 in0.0 mm 0.00 in0.0 mm 0.00 in0.0 mm
02:35 AM 26.2°F-3.2°C 19.4°F-7.0°C 81% 0.2 mph NNW0.3 kmh NNW 0.9 mph1.4 kmh 29.41 in995.9 mb 0.00 in0.0 mm 0.00 in0.0 mm 0.00 in0.0 mm
02:40 AM 26.1°F-3.3°C 19.4°F-7.0°C 81% 0.4 mph NNW0.6 kmh NNW 0.9 mph1.4 kmh 29.41 in995.9 mb 0.00 in0.0 mm 0.00 in0.0 mm 0.00 in0.0 mm
02:45 AM 26.1°F-3.3°C 19.4°F-7.0°C 81% 0.2 mph NNW0.3 kmh NNW 0.9 mph1.4 kmh 29.41 in995.9 mb 0.00 in0.0 mm 0.00 in0.0 mm 0.00 in0.0 mm
02:50 AM 26.4°F-3.1°C 21.2°F-6.0°C 81% 0.2 mph NE0.3 kmh NE 0.9 mph1.4 kmh 29.41 in995.9 mb 0.00 in0.0 mm 0.00 in0.0 mm 0.00 in0.0 mm
02:55 AM 26.6°F-3.0°C 21.2°F-6.0°C 81% 0.7 mph NNE1.1 kmh NNE 2.0 mph3.2 kmh 29.41 in995.9 mb 0.00 in0.0 mm 0.00 in0.0 mm 0.00 in0.0 mm
03:00 AM 26.8°F-2.9°C 21.2°F-6.0°C 81% 0.6 mph N1.0 kmh N 2.0 mph3.2 kmh 29.41 in995.9 mb 0.00 in0.0 mm 0.00 in0.0 mm 0.00 in0.0 mm
03:05 AM 26.8°F-2.9°C 21.2°F-6.0°C 81% 0.3 mph N0.5 kmh N 2.0 mph3.2 kmh 29.36 in994.2 mb 0.00 in0.0 mm 0.00 in0.0 mm 0.00 in0.0 mm
03:10 AM 27.0°F-2.8°C 21.2°F-6.0°C 81% Calm Calm -- 29.36 in994.2 mb 0.00 in0.0 mm 0.00 in0.0 mm 0.00 in0.0 mm
03:15 AM 27.0°F-2.8°C 21.2°F-6.0°C 81% Calm Calm -- 29.36 in994.2 mb 0.00 in0.0 mm 0.00 in0.0 mm 0.00 in0.0 mm
03:20 AM 27.0°F-2.8°C 21.2°F-6.0°C 81% Calm Calm -- 29.41 in995.9 mb 0.00 in0.0 mm 0.00 in0.0 mm 0.00 in0.0 mm
03:25 AM 27.0°F-2.8°C 21.2°F-6.0°C 81% Calm Calm -- 29.41 in995.9 mb 0.00 in0.0 mm 0.00 in0.0 mm 0.00 in0.0 mm
03:30 AM 27.0°F-2.8°C 21.2°F-6.0°C 81% Calm Calm -- 29.41 in995.9 mb 0.00 in0.0 mm 0.00 in0.0 mm 0.00 in0.0 mm
03:35 AM 27.1°F-2.7°C 21.2°F-6.0°C 81% Calm Calm -- 29.41 in995.9 mb 0.00 in0.0 mm 0.00 in0.0 mm 0.00 in0.0 mm
03:40 AM 27.3°F-2.6°C 21.2°F-6.0°C 81% Calm Calm -- 29.41 in995.9 mb 0.00 in0.0 mm 0.00 in0.0 mm 0.00 in0.0 mm
03:45 AM 27.5°F-2.5°C 21.2°F-6.0°C 81% Calm Calm -- 29.41 in995.9 mb 0.00 in0.0 mm 0.00 in0.0 mm 0.00 in0.0 mm
03:50 AM 27.5°F-2.5°C 21.2°F-6.0°C 81% Calm Calm -- 29.39 in995.3 mb 0.00 in0.0 mm 0.00 in0.0 mm 0.00 in0.0 mm
03:55 AM 27.5°F-2.5°C 21.2°F-6.0°C 81% Calm Calm -- 29.39 in995.3 mb 0.00 in0.0 mm 0.00 in0.0 mm 0.00 in0.0 mm
04:00 AM 27.7°F-2.4°C 21.2°F-6.0°C 81% Calm Calm -- 29.39 in995.3 mb 0.00 in0.0 mm 0.00 in0.0 mm 0.00 in0.0 mm
04:05 AM 27.7°F-2.4°C 21.2°F-6.0°C 81% Calm Calm -- 29.41 in995.9 mb 0.00 in0.0 mm 0.00 in0.0 mm 0.00 in0.0 mm
04:10 AM 27.9°F-2.3°C 21.2°F-6.0°C 81% Calm Calm -- 29.41 in995.9 mb 0.00 in0.0 mm 0.00 in0.0 mm 0.00 in0.0 mm
04:15 AM 27.9°F-2.3°C 21.2°F-6.0°C 81% Calm Calm -- 29.41 in995.9 mb 0.00 in0.0 mm 0.00 in0.0 mm 0.00 in0.0 mm
04:20 AM 28.0°F-2.2°C 21.2°F-6.0°C 81% Calm Calm -- 29.39 in995.3 mb 0.00 in0.0 mm 0.00 in0.0 mm 0.00 in0.0 mm
04:25 AM 28.0°F-2.2°C 21.2°F-6.0°C 81% Calm Calm -- 29.39 in995.3 mb 0.00 in0.0 mm 0.00 in0.0 mm 0.00 in0.0 mm
04:30 AM 28.2°F-2.1°C 21.2°F-6.0°C 81% Calm Calm -- 29.39 in995.3 mb 0.00 in0.0 mm 0.00 in0.0 mm 0.00 in0.0 mm
04:35 AM 28.2°F-2.1°C 21.2°F-6.0°C 81% Calm Calm -- 29.41 in995.9 mb 0.00 in0.0 mm 0.00 in0.0 mm 0.00 in0.0 mm
04:40 AM 28.4°F-2.0°C 21.2°F-6.0°C 81% Calm Calm -- 29.41 in995.9 mb 0.00 in0.0 mm 0.00 in0.0 mm 0.00 in0.0 mm
04:45 AM 28.4°F-2.0°C 21.2°F-6.0°C 81% Calm Calm -- 29.41 in995.9 mb 0.00 in0.0 mm 0.00 in0.0 mm 0.00 in0.0 mm
04:50 AM 28.4°F-2.0°C 21.2°F-6.0°C 81% Calm Calm -- 29.36 in994.2 mb 0.00 in0.0 mm 0.00 in0.0 mm 0.00 in0.0 mm
04:55 AM 28.4°F-2.0°C 21.2°F-6.0°C 81% Calm Calm -- 29.36 in994.2 mb 0.00 in0.0 mm 0.00 in0.0 mm 0.00 in0.0 mm
05:00 AM 28.4°F-2.0°C 21.2°F-6.0°C 81% Calm Calm -- 29.36 in994.2 mb 0.00 in0.0 mm 0.00 in0.0 mm 0.00 in0.0 mm
05:05 AM 28.4°F-2.0°C 21.2°F-6.0°C 81% Calm Calm -- 29.39 in995.3 mb 0.00 in0.0 mm 0.00 in0.0 mm 0.00 in0.0 mm
05:10 AM 28.4°F-2.0°C 21.2°F-6.0°C 81% Calm Calm -- 29.39 in995.3 mb 0.00 in0.0 mm 0.00 in0.0 mm 0.00 in0.0 mm
05:15 AM 28.4°F-2.0°C 21.2°F-6.0°C 81% Calm Calm -- 29.39 in995.3 mb 0.00 in0.0 mm 0.00 in0.0 mm 0.00 in0.0 mm
05:20 AM 28.4°F-2.0°C 21.2°F-6.0°C 81% Calm Calm -- 29.39 in995.3 mb 0.00 in0.0 mm 0.00 in0.0 mm 0.00 in0.0 mm
05:25 AM 28.4°F-2.0°C 21.2°F-6.0°C 81% Calm Calm -- 29.39 in995.3 mb 0.00 in0.0 mm 0.00 in0.0 mm 0.00 in0.0 mm
05:30 AM 28.4°F-2.0°C 21.2°F-6.0°C 81% Calm Calm -- 29.39 in995.3 mb 0.00 in0.0 mm 0.00 in0.0 mm 0.00 in0.0 mm
05:35 AM 28.4°F-2.0°C 21.2°F-6.0°C 81% 0.2 mph NW0.3 kmh NW 1.1 mph1.8 kmh 29.39 in995.3 mb 0.00 in0.0 mm 0.00 in0.0 mm 0.00 in0.0 mm
05:40 AM 28.6°F-1.9°C 23.0°F-5.0°C 81% 0.2 mph NW0.3 kmh NW 1.1 mph1.8 kmh 29.39 in995.3 mb 0.00 in0.0 mm 0.00 in0.0 mm 0.00 in0.0 mm
05:45 AM 28.6°F-1.9°C 23.0°F-5.0°C 81% Calm Calm -- 29.39 in995.3 mb 0.00 in0.0 mm 0.00 in0.0 mm 0.00 in0.0 mm
05:50 AM 28.8°F-1.8°C 23.0°F-5.0°C 81% Calm Calm -- 29.41 in995.9 mb 0.00 in0.0 mm 0.00 in0.0 mm 0.00 in0.0 mm
05:55 AM 28.8°F-1.8°C 23.0°F-5.0°C 81% Calm Calm -- 29.41 in995.9 mb 0.00 in0.0 mm 0.00 in0.0 mm 0.00 in0.0 mm
06:00 AM 28.9°F-1.7°C 23.0°F-5.0°C 81% Calm Calm -- 29.41 in995.9 mb 0.00 in0.0 mm 0.00 in0.0 mm 0.00 in0.0 mm
06:05 AM 28.9°F-1.7°C 23.0°F-5.0°C 81% Calm Calm -- 29.41 in995.9 mb 0.00 in0.0 mm 0.00 in0.0 mm 0.00 in0.0 mm
06:10 AM 28.9°F-1.7°C 23.0°F-5.0°C 82% Calm Calm -- 29.41 in995.9 mb 0.00 in0.0 mm 0.00 in0.0 mm 0.00 in0.0 mm
06:15 AM 28.9°F-1.7°C 23.0°F-5.0°C 82% Calm Calm -- 29.41 in995.9 mb 0.00 in0.0 mm 0.00 in0.0 mm 0.00 in0.0 mm
06:20 AM 29.1°F-1.6°C 23.0°F-5.0°C 82% Calm Calm -- 29.39 in995.3 mb 0.00 in0.0 mm 0.00 in0.0 mm 0.00 in0.0 mm
06:25 AM 29.1°F-1.6°C 23.0°F-5.0°C 82% Calm Calm -- 29.39 in995.3 mb 0.00 in0.0 mm 0.00 in0.0 mm 0.00 in0.0 mm
06:30 AM 29.1°F-1.6°C 23.0°F-5.0°C 82% Calm Calm -- 29.39 in995.3 mb 0.00 in0.0 mm 0.00 in0.0 mm 0.00 in0.0 mm
06:35 AM 29.1°F-1.6°C 23.0°F-5.0°C 82% Calm Calm -- 29.41 in995.9 mb 0.00 in0.0 mm 0.00 in0.0 mm 0.00 in0.0 mm
06:40 AM 29.3°F-1.5°C 23.0°F-5.0°C 82% Calm Calm -- 29.41 in995.9 mb 0.00 in0.0 mm 0.00 in0.0 mm 0.00 in0.0 mm
06:45 AM 29.3°F-1.5°C 23.0°F-5.0°C 82% Calm Calm -- 29.41 in995.9 mb 0.00 in0.0 mm 0.00 in0.0 mm 0.00 in0.0 mm
06:50 AM 29.3°F-1.5°C 23.0°F-5.0°C 82% Calm Calm -- 29.39 in995.3 mb 0.00 in0.0 mm 0.00 in0.0 mm 0.00 in0.0 mm
06:55 AM 29.3°F-1.5°C 23.0°F-5.0°C 82% Calm Calm -- 29.39 in995.3 mb 0.00 in0.0 mm 0.00 in0.0 mm 0.00 in0.0 mm
07:00 AM 29.3°F-1.5°C 23.0°F-5.0°C 82% Calm Calm -- 29.39 in995.3 mb 0.00 in0.0 mm 0.00 in0.0 mm 0.00 in0.0 mm
07:05 AM 29.3°F-1.5°C 23.0°F-5.0°C 82% Calm Calm -- 29.41 in995.9 mb 0.00 in0.0 mm 0.00 in0.0 mm 0.00 in0.0 mm
07:10 AM 29.5°F-1.4°C 23.0°F-5.0°C 82% Calm Calm -- 29.41 in995.9 mb 0.00 in0.0 mm 0.00 in0.0 mm 0.00 in0.0 mm
07:15 AM 29.5°F-1.4°C 23.0°F-5.0°C 82% Calm Calm -- 29.41 in995.9 mb 0.00 in0.0 mm 0.00 in0.0 mm 0.00 in0.0 mm
07:20 AM 29.3°F-1.5°C 23.0°F-5.0°C 82% Calm Calm -- 29.41 in995.9 mb 0.00 in0.0 mm 0.00 in0.0 mm 0.00 in0.0 mm
07:25 AM 29.1°F-1.6°C 23.0°F-5.0°C 82% Calm Calm -- 29.41 in995.9 mb 0.00 in0.0 mm 0.00 in0.0 mm 0.00 in0.0 mm
07:30 AM 28.9°F-1.7°C 23.0°F-5.0°C 82% Calm Calm -- 29.41 in995.9 mb 0.00 in0.0 mm 0.00 in0.0 mm 0.00 in0.0 mm
07:35 AM 28.8°F-1.8°C 23.0°F-5.0°C 82% Calm Calm -- 29.41 in995.9 mb 0.00 in0.0 mm 0.00 in0.0 mm 0.00 in0.0 mm
07:40 AM 28.4°F-2.0°C 23.0°F-5.0°C 82% Calm Calm -- 29.41 in995.9 mb 0.00 in0.0 mm 0.00 in0.0 mm 0.00 in0.0 mm
07:45 AM 28.0°F-2.2°C 23.0°F-5.0°C 82% Calm Calm -- 29.41 in995.9 mb 0.00 in0.0 mm 0.00 in0.0 mm 0.00 in0.0 mm
07:50 AM 27.9°F-2.3°C 21.2°F-6.0°C 82% Calm Calm -- 29.41 in995.9 mb 0.00 in0.0 mm 0.00 in0.0 mm 0.00 in0.0 mm
07:55 AM 27.9°F-2.3°C 21.2°F-6.0°C 82% Calm Calm -- 29.41 in995.9 mb 0.00 in0.0 mm 0.00 in0.0 mm 0.00 in0.0 mm
08:00 AM 28.0°F-2.2°C 23.0°F-5.0°C 82% Calm Calm -- 29.41 in995.9 mb 0.00 in0.0 mm 0.00 in0.0 mm 0.00 in0.0 mm
08:05 AM 28.0°F-2.2°C 23.0°F-5.0°C 82% Calm Calm -- 29.45 in997.3 mb 0.00 in0.0 mm 0.00 in0.0 mm 0.00 in0.0 mm
08:10 AM 28.0°F-2.2°C 23.0°F-5.0°C 82% Calm Calm -- 29.45 in997.3 mb 0.00 in0.0 mm 0.00 in0.0 mm 0.00 in0.0 mm
08:15 AM 27.9°F-2.3°C 21.2°F-6.0°C 82% Calm Calm -- 29.45 in997.3 mb 0.00 in0.0 mm 0.00 in0.0 mm 0.00 in0.0 mm
08:20 AM 28.0°F-2.2°C 23.0°F-5.0°C 82% Calm Calm -- 29.45 in997.3 mb 0.00 in0.0 mm 0.00 in0.0 mm 0.00 in0.0 mm
08:25 AM 28.0°F-2.2°C 23.0°F-5.0°C 82% Calm Calm -- 29.45 in997.3 mb 0.00 in0.0 mm 0.00 in0.0 mm 0.00 in0.0 mm
08:30 AM 28.4°F-2.0°C 23.0°F-5.0°C 82% Calm Calm -- 29.45 in997.3 mb 0.00 in0.0 mm 0.00 in0.0 mm 0.00 in0.0 mm
08:35 AM 28.4°F-2.0°C 23.0°F-5.0°C 82% Calm Calm -- 29.45 in997.3 mb 0.00 in0.0 mm 0.00 in0.0 mm 0.00 in0.0 mm
08:40 AM 28.4°F-2.0°C 23.0°F-5.0°C 82% 0.1 mph ENE0.2 kmh ENE 0.9 mph1.4 kmh 29.45 in997.3 mb 0.00 in0.0 mm 0.00 in0.0 mm 0.00 in0.0 mm
08:45 AM 28.6°F-1.9°C 23.0°F-5.0°C 82% 0.1 mph ENE0.2 kmh ENE 0.9 mph1.4 kmh 29.45 in997.3 mb 0.00 in0.0 mm 0.00 in0.0 mm 0.00 in0.0 mm
08:50 AM 28.9°F-1.7°C 23.0°F-5.0°C 82% Calm Calm -- 29.45 in997.3 mb 0.00 in0.0 mm 0.00 in0.0 mm 0.00 in0.0 mm
08:55 AM 28.9°F-1.7°C 23.0°F-5.0°C 82% Calm Calm -- 29.45 in997.3 mb 0.00 in0.0 mm 0.00 in0.0 mm 0.00 in0.0 mm
09:00 AM 29.1°F-1.6°C 23.0°F-5.0°C 83% Calm Calm -- 29.45 in997.3 mb 0.00 in0.0 mm 0.00 in0.0 mm 0.00 in0.0 mm
09:05 AM 29.1°F-1.6°C 23.0°F-5.0°C 83% Calm Calm -- 29.41 in995.9 mb 0.00 in0.0 mm 0.00 in0.0 mm 0.00 in0.0 mm
09:10 AM 29.3°F-1.5°C 23.0°F-5.0°C 83% Calm Calm -- 29.41 in995.9 mb 0.00 in0.0 mm 0.00 in0.0 mm 0.00 in0.0 mm
09:15 AM 29.3°F-1.5°C 23.0°F-5.0°C 83% Calm Calm -- 29.41 in995.9 mb 0.00 in0.0 mm 0.00 in0.0 mm 0.00 in0.0 mm
09:20 AM 29.3°F-1.5°C 23.0°F-5.0°C 83% Calm Calm -- 29.47 in998.0 mb 0.00 in0.0 mm 0.00 in0.0 mm 0.00 in0.0 mm
09:25 AM 29.5°F-1.4°C 23.0°F-5.0°C 83% Calm Calm -- 29.47 in998.0 mb 0.00 in0.0 mm 0.00 in0.0 mm 0.00 in0.0 mm
09:30 AM 29.5°F-1.4°C 23.0°F-5.0°C 83% Calm Calm -- 29.47 in998.0 mb 0.00 in0.0 mm 0.00 in0.0 mm 0.00 in0.0 mm
09:35 AM 29.7°F-1.3°C 23.0°F-5.0°C 83% Calm Calm -- 29.50 in999.0 mb 0.00 in0.0 mm 0.00 in0.0 mm 0.00 in0.0 mm
09:40 AM 29.7°F-1.3°C 23.0°F-5.0°C 83% Calm Calm -- 29.50 in999.0 mb 0.00 in0.0 mm 0.00 in0.0 mm 0.00 in0.0 mm
09:45 AM 29.8°F-1.2°C 23.0°F-5.0°C 83% Calm Calm -- 29.50 in999.0 mb 0.00 in0.0 mm 0.00 in0.0 mm 0.00 in0.0 mm
09:50 AM 30.0°F-1.1°C 24.8°F-4.0°C 83% 0.2 mph WSW0.3 kmh WSW 0.9 mph1.4 kmh 29.50 in999.0 mb 0.00 in0.0 mm 0.00 in0.0 mm 0.00 in0.0 mm
09:55 AM 30.2°F-1.0°C 24.8°F-4.0°C 83% 0.2 mph WSW0.3 kmh WSW 0.9 mph1.4 kmh 29.50 in999.0 mb 0.00 in0.0 mm 0.00 in0.0 mm 0.00 in0.0 mm
10:00 AM 30.4°F-0.9°C 24.8°F-4.0°C 83% Calm Calm -- 29.50 in999.0 mb 0.00 in0.0 mm 0.00 in0.0 mm 0.00 in0.0 mm
10:05 AM 30.4°F-0.9°C 24.8°F-4.0°C 83% Calm Calm -- 29.50 in999.0 mb 0.00 in0.0 mm 0.00 in0.0 mm 0.00 in0.0 mm
10:10 AM 30.6°F-0.8°C 24.8°F-4.0°C 83% Calm Calm -- 29.50 in999.0 mb 0.00 in0.0 mm 0.00 in0.0 mm 0.00 in0.0 mm
10:15 AM 30.7°F-0.7°C 24.8°F-4.0°C 83% Calm Calm -- 29.50 in999.0 mb 0.00 in0.0 mm 0.00 in0.0 mm 0.00 in0.0 mm
10:20 AM 30.9°F-0.6°C 24.8°F-4.0°C 83% Calm Calm -- 29.50 in999.0 mb 0.00 in0.0 mm 0.00 in0.0 mm 0.00 in0.0 mm
10:25 AM 31.1°F-0.5°C 24.8°F-4.0°C 83% Calm Calm -- 29.50 in999.0 mb 0.00 in0.0 mm 0.00 in0.0 mm 0.00 in0.0 mm
10:30 AM 31.1°F-0.5°C 24.8°F-4.0°C 83% Calm Calm -- 29.50 in999.0 mb 0.00 in0.0 mm 0.00 in0.0 mm 0.00 in0.0 mm
10:35 AM 31.1°F-0.5°C 24.8°F-4.0°C 83% Calm Calm -- 29.50 in999.0 mb 0.00 in0.0 mm 0.00 in0.0 mm 0.00 in0.0 mm
10:40 AM 31.3°F-0.4°C 24.8°F-4.0°C 83% Calm Calm -- 29.50 in999.0 mb 0.00 in0.0 mm 0.00 in0.0 mm 0.00 in0.0 mm
10:45 AM 31.5°F-0.3°C 24.8°F-4.0°C 82% Calm Calm -- 29.50 in999.0 mb 0.00 in0.0 mm 0.00 in0.0 mm 0.00 in0.0 mm
10:50 AM 31.6°F-0.2°C 26.6°F-3.0°C 82% Calm Calm -- 29.50 in999.0 mb 0.00 in0.0 mm 0.00 in0.0 mm 0.00 in0.0 mm
10:55 AM 31.6°F-0.2°C 26.6°F-3.0°C 82% Calm Calm -- 29.50 in999.0 mb 0.00 in0.0 mm 0.00 in0.0 mm 0.00 in0.0 mm
11:00 AM 31.6°F-0.2°C 26.6°F-3.0°C 82% Calm Calm -- 29.50 in999.0 mb 0.00 in0.0 mm 0.00 in0.0 mm 0.00 in0.0 mm
11:05 AM 31.6°F-0.2°C 26.6°F-3.0°C 82% 0.2 mph E0.3 kmh E 0.9 mph1.4 kmh 29.50 in999.0 mb 0.00 in0.0 mm 0.00 in0.0 mm 0.00 in0.0 mm
11:10 AM 31.8°F-0.1°C 26.6°F-3.0°C 82% 0.2 mph E0.3 kmh E 0.9 mph1.4 kmh 29.50 in999.0 mb 0.00 in0.0 mm 0.00 in0.0 mm 0.00 in0.0 mm
11:15 AM 32.0°F0.0°C 26.6°F-3.0°C 82% 0.1 mph E0.2 kmh E 0.9 mph1.4 kmh 29.50 in999.0 mb 0.00 in0.0 mm 0.00 in0.0 mm 0.00 in0.0 mm
11:20 AM 32.2°F0.1°C 28.4°F-2.0°C 82% Calm Calm -- 29.50 in999.0 mb 0.00 in0.0 mm 0.00 in0.0 mm 0.00 in0.0 mm
11:25 AM 32.5°F0.3°C 28.4°F-2.0°C 82% Calm Calm -- 29.50 in999.0 mb 0.00 in0.0 mm 0.00 in0.0 mm 0.00 in0.0 mm
11:30 AM 33.1°F0.6°C 28.4°F-2.0°C 82% Calm Calm -- 29.50 in999.0 mb 0.00 in0.0 mm 0.00 in0.0 mm 0.00 in0.0 mm
11:35 AM 33.6°F0.9°C 30.2°F-1.0°C 82% Calm Calm -- 29.50 in999.0 mb 0.00 in0.0 mm 0.00 in0.0 mm 0.00 in0.0 mm
11:40 AM 34.0°F1.1°C 28.4°F-2.0°C 81% 0.2 mph S0.3 kmh S 0.9 mph1.4 kmh 29.50 in999.0 mb 0.00 in0.0 mm 0.00 in0.0 mm 0.00 in0.0 mm
11:45 AM 35.1°F1.7°C 30.2°F-1.0°C 81% 0.3 mph S0.5 kmh S 0.9 mph1.4 kmh 29.50 in999.0 mb 0.00 in0.0 mm 0.00 in0.0 mm 0.00 in0.0 mm
11:50 AM 34.7°F1.5°C 30.2°F-1.0°C 81% 0.3 mph ESE0.5 kmh ESE 1.1 mph1.8 kmh 29.30 in992.2 mb 0.00 in0.0 mm 0.00 in0.0 mm 0.00 in0.0 mm
11:55 AM 36.5°F2.5°C 32.0°F0.0°C 81% 0.3 mph ESE0.5 kmh ESE 1.1 mph1.8 kmh 29.30 in992.2 mb 0.00 in0.0 mm 0.00 in0.0 mm 0.00 in0.0 mm
12:00 PM 37.2°F2.9°C 32.0°F0.0°C 80% 0.2 mph ESE0.3 kmh ESE 1.1 mph1.8 kmh 29.30 in992.2 mb 0.00 in0.0 mm 0.00 in0.0 mm 0.00 in0.0 mm
12:05 PM 37.4°F3.0°C 32.0°F0.0°C 80% 0.1 mph E0.2 kmh E 1.1 mph1.8 kmh 29.50 in999.0 mb 0.00 in0.0 mm 0.00 in0.0 mm 0.00 in0.0 mm
12:10 PM 36.3°F2.4°C 30.2°F-1.0°C 79% 0.1 mph E0.2 kmh E 0.9 mph1.4 kmh 29.50 in999.0 mb 0.00 in0.0 mm 0.00 in0.0 mm 0.00 in0.0 mm
12:15 PM 36.3°F2.4°C 30.2°F-1.0°C 79% Calm Calm -- 29.50 in999.0 mb 0.00 in0.0 mm 0.00 in0.0 mm 0.00 in0.0 mm
12:20 PM 36.3°F2.4°C 30.2°F-1.0°C 79% Calm Calm -- 29.50 in999.0 mb 0.00 in0.0 mm 0.00 in0.0 mm 0.00 in0.0 mm
12:25 PM 36.1°F2.3°C 30.2°F-1.0°C 79% Calm Calm -- 29.50 in999.0 mb 0.00 in0.0 mm 0.00 in0.0 mm 0.00 in0.0 mm
12:30 PM 36.3°F2.4°C 30.2°F-1.0°C 79% Calm Calm -- 29.50 in999.0 mb 0.00 in0.0 mm 0.00 in0.0 mm 0.00 in0.0 mm
12:35 PM 36.0°F2.2°C 30.2°F-1.0°C 79% 0.1 mph SSW0.2 kmh SSW 1.1 mph1.8 kmh 29.50 in999.0 mb 0.00 in0.0 mm 0.00 in0.0 mm 0.00 in0.0 mm
12:40 PM 35.8°F2.1°C 30.2°F-1.0°C 79% 0.1 mph SSW0.2 kmh SSW 1.1 mph1.8 kmh 29.50 in999.0 mb 0.00 in0.0 mm 0.00 in0.0 mm 0.00 in0.0 mm
12:45 PM 35.6°F2.0°C 30.2°F-1.0°C 79% Calm Calm -- 29.50 in999.0 mb 0.00 in0.0 mm 0.00 in0.0 mm 0.00 in0.0 mm
12:50 PM 36.7°F2.6°C 32.0°F0.0°C 79% 0.3 mph SSW0.5 kmh SSW 1.6 mph2.6 kmh 29.50 in999.0 mb 0.00 in0.0 mm 0.00 in0.0 mm 0.00 in0.0 mm
12:55 PM 37.2°F2.9°C 32.0°F0.0°C 79% 0.7 mph SW1.1 kmh SW 2.0 mph3.2 kmh 29.50 in999.0 mb 0.00 in0.0 mm 0.00 in0.0 mm 0.00 in0.0 mm
01:00 PM 37.8°F3.2°C 32.0°F0.0°C 79% 1.3 mph WSW2.1 kmh WSW 2.2 mph3.5 kmh 29.50 in999.0 mb 0.00 in0.0 mm 0.00 in0.0 mm 0.00 in0.0 mm
01:05 PM 37.8°F3.2°C 32.0°F0.0°C 78% 1.6 mph WSW2.6 kmh WSW 2.2 mph3.5 kmh 29.50 in999.0 mb 0.00 in0.0 mm 0.00 in0.0 mm 0.00 in0.0 mm
01:10 PM 38.3°F3.5°C 32.0°F0.0°C 78% 1.1 mph WSW1.8 kmh WSW 2.0 mph3.2 kmh 29.50 in999.0 mb 0.00 in0.0 mm 0.00 in0.0 mm 0.00 in0.0 mm
01:15 PM 38.1°F3.4°C 32.0°F0.0°C 78% 0.8 mph WSW1.3 kmh WSW 1.6 mph2.6 kmh 29.50 in999.0 mb 0.00 in0.0 mm 0.00 in0.0 mm 0.00 in0.0 mm
01:20 PM 37.6°F3.1°C 32.0°F0.0°C 78% 1.2 mph WSW1.9 kmh WSW 2.5 mph4.0 kmh 29.50 in999.0 mb 0.00 in0.0 mm 0.00 in0.0 mm 0.00 in0.0 mm
01:25 PM 38.7°F3.7°C 32.0°F0.0°C 78% 0.8 mph WSW1.3 kmh WSW 2.5 mph4.0 kmh 29.50 in999.0 mb 0.00 in0.0 mm 0.00 in0.0 mm 0.00 in0.0 mm
01:30 PM 38.8°F3.8°C 32.0°F0.0°C 78% 0.6 mph SW1.0 kmh SW 1.6 mph2.6 kmh 29.50 in999.0 mb 0.00 in0.0 mm 0.00 in0.0 mm 0.00 in0.0 mm
01:35 PM 39.0°F3.9°C 33.8°F1.0°C 78% 0.6 mph SW1.0 kmh SW 1.6 mph2.6 kmh 29.50 in999.0 mb 0.00 in0.0 mm 0.00 in0.0 mm 0.00 in0.0 mm
01:40 PM 38.8°F3.8°C 32.0°F0.0°C 78% 0.7 mph WSW1.1 kmh WSW 1.6 mph2.6 kmh 29.50 in999.0 mb 0.00 in0.0 mm 0.00 in0.0 mm 0.00 in0.0 mm
01:45 PM 38.5°F3.6°C 32.0°F0.0°C 78% 0.9 mph WSW1.4 kmh WSW 1.6 mph2.6 kmh 29.50 in999.0 mb 0.00 in0.0 mm 0.00 in0.0 mm 0.00 in0.0 mm
01:50 PM 38.3°F3.5°C 32.0°F0.0°C 78% 1.3 mph SSW2.1 kmh SSW 2.9 mph4.7 kmh 29.27 in991.2 mb 0.00 in0.0 mm 0.00 in0.0 mm 0.00 in0.0 mm
01:55 PM 38.1°F3.4°C 32.0°F0.0°C 78% 1.5 mph SSW2.4 kmh SSW 2.9 mph4.7 kmh 29.27 in991.2 mb 0.00 in0.0 mm 0.00 in0.0 mm 0.00 in0.0 mm
02:00 PM 37.8°F3.2°C 32.0°F0.0°C 78% 0.8 mph S1.3 kmh S 2.9 mph4.7 kmh 29.27 in991.2 mb 0.00 in0.0 mm 0.00 in0.0 mm 0.00 in0.0 mm
02:05 PM 37.6°F3.1°C 32.0°F0.0°C 78% 0.5 mph S0.8 kmh S 2.5 mph4.0 kmh 29.50 in999.0 mb 0.00 in0.0 mm 0.00 in0.0 mm 0.00 in0.0 mm
02:10 PM 37.6°F3.1°C 32.0°F0.0°C 78% 0.9 mph S1.4 kmh S 2.9 mph4.7 kmh 29.50 in999.0 mb 0.00 in0.0 mm 0.00 in0.0 mm 0.00 in0.0 mm
02:15 PM 37.6°F3.1°C 32.0°F0.0°C 78% 0.6 mph SSW1.0 kmh SSW 2.9 mph4.7 kmh 29.50 in999.0 mb 0.00 in0.0 mm 0.00 in0.0 mm 0.00 in0.0 mm
02:20 PM 37.6°F3.1°C 32.0°F0.0°C 78% 0.7 mph S1.1 kmh S 2.0 mph3.2 kmh 29.50 in999.0 mb 0.00 in0.0 mm 0.00 in0.0 mm 0.00 in0.0 mm
02:25 PM 37.4°F3.0°C 32.0°F0.0°C 79% 0.6 mph S1.0 kmh S 2.0 mph3.2 kmh 29.50 in999.0 mb 0.00 in0.0 mm 0.00 in0.0 mm 0.00 in0.0 mm
02:30 PM 37.4°F3.0°C 32.0°F0.0°C 79% Calm Calm -- 29.50 in999.0 mb 0.00 in0.0 mm 0.00 in0.0 mm 0.00 in0.0 mm
02:35 PM 37.4°F3.0°C 32.0°F0.0°C 79% Calm Calm -- 29.50 in999.0 mb 0.00 in0.0 mm 0.00 in0.0 mm 0.00 in0.0 mm
02:40 PM 37.4°F3.0°C 32.0°F0.0°C 79% 0.2 mph SSW0.3 kmh SSW 0.9 mph1.4 kmh 29.50 in999.0 mb 0.00 in0.0 mm 0.00 in0.0 mm 0.00 in0.0 mm
02:45 PM 37.2°F2.9°C 32.0°F0.0°C 79% 0.4 mph SSW0.6 kmh SSW 1.3 mph2.1 kmh 29.50 in999.0 mb 0.00 in0.0 mm 0.00 in0.0 mm 0.00 in0.0 mm
02:50 PM 37.0°F2.8°C 32.0°F0.0°C 79% 0.6 mph SW1.0 kmh SW 1.3 mph2.1 kmh 29.50 in999.0 mb 0.00 in0.0 mm 0.00 in0.0 mm 0.00 in0.0 mm
02:55 PM 37.0°F2.8°C 32.0°F0.0°C 79% 0.6 mph WSW1.0 kmh WSW 1.1 mph1.8 kmh 29.50 in999.0 mb 0.00 in0.0 mm 0.00 in0.0 mm 0.00 in0.0 mm
03:00 PM 37.0°F2.8°C 32.0°F0.0°C 79% 0.4 mph WSW0.6 kmh WSW 1.1 mph1.8 kmh 29.50 in999.0 mb 0.00 in0.0 mm 0.00 in0.0 mm 0.00 in0.0 mm
03:05 PM 36.7°F2.6°C 32.0°F0.0°C 79% 0.3 mph WSW0.5 kmh WSW 1.1 mph1.8 kmh 29.50 in999.0 mb 0.00 in0.0 mm 0.00 in0.0 mm 0.00 in0.0 mm
03:10 PM 36.5°F2.5°C 32.0°F0.0°C 79% 0.3 mph WSW0.5 kmh WSW 1.6 mph2.6 kmh 29.50 in999.0 mb 0.00 in0.0 mm 0.00 in0.0 mm 0.00 in0.0 mm
03:15 PM 36.3°F2.4°C 32.0°F0.0°C 80% 0.9 mph WSW1.4 kmh WSW 2.9 mph4.7 kmh 29.50 in999.0 mb 0.00 in0.0 mm 0.00 in0.0 mm 0.00 in0.0 mm
03:20 PM 36.1°F2.3°C 32.0°F0.0°C 80% 1.2 mph WSW1.9 kmh WSW 2.9 mph4.7 kmh 29.53 in1000.0 mb 0.00 in0.0 mm 0.00 in0.0 mm 0.00 in0.0 mm
03:25 PM 36.0°F2.2°C 30.2°F-1.0°C 80% 0.8 mph WSW1.3 kmh WSW 1.6 mph2.6 kmh 29.53 in1000.0 mb 0.00 in0.0 mm 0.00 in0.0 mm 0.00 in0.0 mm
03:30 PM 35.6°F2.0°C 30.2°F-1.0°C 80% 0.5 mph WSW0.8 kmh WSW 1.6 mph2.6 kmh 29.53 in1000.0 mb 0.00 in0.0 mm 0.00 in0.0 mm 0.00 in0.0 mm
03:35 PM 35.2°F1.8°C 30.2°F-1.0°C 80% 0.2 mph WSW0.3 kmh WSW 1.1 mph1.8 kmh 29.53 in1000.0 mb 0.00 in0.0 mm 0.00 in0.0 mm 0.00 in0.0 mm
03:40 PM 35.1°F1.7°C 30.2°F-1.0°C 80% 0.4 mph WSW0.6 kmh WSW 1.1 mph1.8 kmh 29.53 in1000.0 mb 0.00 in0.0 mm 0.00 in0.0 mm 0.00 in0.0 mm
03:45 PM 34.9°F1.6°C 30.2°F-1.0°C 80% 0.4 mph WNW0.6 kmh WNW 1.1 mph1.8 kmh 29.53 in1000.0 mb 0.00 in0.0 mm 0.00 in0.0 mm 0.00 in0.0 mm
03:50 PM 34.3°F1.3°C 30.2°F-1.0°C 80% 0.1 mph NNW0.2 kmh NNW 0.9 mph1.4 kmh 29.53 in1000.0 mb 0.00 in0.0 mm 0.00 in0.0 mm 0.00 in0.0 mm
03:55 PM 34.2°F1.2°C 30.2°F-1.0°C 80% Calm Calm -- 29.53 in1000.0 mb 0.00 in0.0 mm 0.00 in0.0 mm 0.00 in0.0 mm
04:00 PM 34.2°F1.2°C 30.2°F-1.0°C 80% Calm Calm -- 29.53 in1000.0 mb 0.00 in0.0 mm 0.00 in0.0 mm 0.00 in0.0 mm
04:05 PM 33.8°F1.0°C 28.4°F-2.0°C 80% Calm Calm -- 29.53 in1000.0 mb 0.00 in0.0 mm 0.00 in0.0 mm 0.00 in0.0 mm
04:10 PM 33.4°F0.8°C 28.4°F-2.0°C 80% Calm Calm -- 29.53 in1000.0 mb 0.00 in0.0 mm 0.00 in0.0 mm 0.00 in0.0 mm
04:15 PM 33.3°F0.7°C 28.4°F-2.0°C 80% Calm Calm -- 29.53 in1000.0 mb 0.00 in0.0 mm 0.00 in0.0 mm 0.00 in0.0 mm
04:20 PM 33.1°F0.6°C 28.4°F-2.0°C 81% Calm Calm -- 29.53 in1000.0 mb 0.00 in0.0 mm 0.00 in0.0 mm 0.00 in0.0 mm
04:25 PM 32.9°F0.5°C 28.4°F-2.0°C 81% 0.1 mph NE0.2 kmh NE 0.9 mph1.4 kmh 29.53 in1000.0 mb 0.00 in0.0 mm 0.00 in0.0 mm 0.00 in0.0 mm
04:30 PM 32.7°F0.4°C 28.4°F-2.0°C 81% 0.2 mph NE0.3 kmh NE 0.9 mph1.4 kmh 29.53 in1000.0 mb 0.00 in0.0 mm 0.00 in0.0 mm 0.00 in0.0 mm
04:35 PM 32.5°F0.3°C 28.4°F-2.0°C 81% 0.2 mph NE0.3 kmh NE 0.9 mph1.4 kmh 29.56 in1001.0 mb 0.00 in0.0 mm 0.00 in0.0 mm 0.00 in0.0 mm
04:40 PM 32.5°F0.3°C 28.4°F-2.0°C 81% 0.4 mph ENE0.6 kmh ENE 1.6 mph2.6 kmh 29.56 in1001.0 mb 0.00 in0.0 mm 0.00 in0.0 mm 0.00 in0.0 mm
04:45 PM 32.2°F0.1°C 26.6°F-3.0°C 81% 0.7 mph ENE1.1 kmh ENE 1.6 mph2.6 kmh 29.56 in1001.0 mb 0.00 in0.0 mm 0.00 in0.0 mm 0.00 in0.0 mm
04:50 PM 32.0°F0.0°C 24.8°F-4.0°C 81% 0.4 mph ENE0.6 kmh ENE 1.6 mph2.6 kmh 29.56 in1001.0 mb 0.00 in0.0 mm 0.00 in0.0 mm 0.00 in0.0 mm
04:55 PM 32.0°F0.0°C 24.8°F-4.0°C 81% 0.1 mph NE0.2 kmh NE 1.1 mph1.8 kmh 29.56 in1001.0 mb 0.00 in0.0 mm 0.00 in0.0 mm 0.00 in0.0 mm
05:00 PM 31.8°F-0.1°C 24.8°F-4.0°C 81% 0.1 mph NE0.2 kmh NE 1.1 mph1.8 kmh 29.56 in1001.0 mb 0.00 in0.0 mm 0.00 in0.0 mm 0.00 in0.0 mm
05:05 PM 32.0°F0.0°C 24.8°F-4.0°C 81% 0.2 mph ENE0.3 kmh ENE 1.1 mph1.8 kmh 29.56 in1001.0 mb 0.00 in0.0 mm 0.00 in0.0 mm 0.00 in0.0 mm
05:10 PM 31.8°F-0.1°C 24.8°F-4.0°C 81% 0.8 mph NE1.3 kmh NE 1.6 mph2.6 kmh 29.56 in1001.0 mb 0.00 in0.0 mm 0.00 in0.0 mm 0.00 in0.0 mm
05:15 PM 31.5°F-0.3°C 24.8°F-4.0°C 82% 0.6 mph NE1.0 kmh NE 1.6 mph2.6 kmh 29.56 in1001.0 mb 0.00 in0.0 mm 0.00 in0.0 mm 0.00 in0.0 mm
05:20 PM 31.3°F-0.4°C 24.8°F-4.0°C 82% 0.1 mph NE0.2 kmh NE 1.3 mph2.1 kmh 29.56 in1001.0 mb 0.00 in0.0 mm 0.00 in0.0 mm 0.00 in0.0 mm
05:25 PM 31.1°F-0.5°C 24.8°F-4.0°C 81% Calm Calm -- 29.56 in1001.0 mb 0.00 in0.0 mm 0.00 in0.0 mm 0.00 in0.0 mm
05:30 PM 31.1°F-0.5°C 24.8°F-4.0°C 81% Calm Calm -- 29.56 in1001.0 mb 0.00 in0.0 mm 0.00 in0.0 mm 0.00 in0.0 mm
05:35 PM 30.9°F-0.6°C 24.8°F-4.0°C 81% 0.1 mph NE0.2 kmh NE 1.1 mph1.8 kmh 29.56 in1001.0 mb 0.00 in0.0 mm 0.00 in0.0 mm 0.00 in0.0 mm
05:40 PM 30.9°F-0.6°C 24.8°F-4.0°C 82% 0.3 mph NE0.5 kmh NE 1.1 mph1.8 kmh 29.56 in1001.0 mb 0.00 in0.0 mm 0.00 in0.0 mm 0.00 in0.0 mm
05:45 PM 30.7°F-0.7°C 24.8°F-4.0°C 82% 0.5 mph NE0.8 kmh NE 1.3 mph2.1 kmh 29.56 in1001.0 mb 0.00 in0.0 mm 0.00 in0.0 mm 0.00 in0.0 mm
05:50 PM 30.7°F-0.7°C 24.8°F-4.0°C 82% 0.9 mph NE1.4 kmh NE 1.3 mph2.1 kmh 29.53 in1000.0 mb 0.00 in0.0 mm 0.00 in0.0 mm 0.00 in0.0 mm
05:55 PM 30.7°F-0.7°C 24.8°F-4.0°C 82% 0.9 mph NE1.4 kmh NE 1.3 mph2.1 kmh 29.53 in1000.0 mb 0.00 in0.0 mm 0.00 in0.0 mm 0.00 in0.0 mm
06:00 PM 30.4°F-0.9°C 24.8°F-4.0°C 82% 0.7 mph NE1.1 kmh NE 2.0 mph3.2 kmh 29.53 in1000.0 mb 0.00 in0.0 mm 0.00 in0.0 mm 0.00 in0.0 mm
06:05 PM 30.2°F-1.0°C 24.8°F-4.0°C 82% 0.8 mph NE1.3 kmh NE 2.0 mph3.2 kmh 29.56 in1001.0 mb 0.00 in0.0 mm 0.00 in0.0 mm 0.00 in0.0 mm
06:10 PM 30.0°F-1.1°C 24.8°F-4.0°C 82% 0.5 mph NE0.8 kmh NE 1.6 mph2.6 kmh 29.56 in1001.0 mb 0.00 in0.0 mm 0.00 in0.0 mm 0.00 in0.0 mm
06:15 PM 29.8°F-1.2°C 23.0°F-5.0°C 82% 0.2 mph NE0.3 kmh NE 0.9 mph1.4 kmh 29.56 in1001.0 mb 0.00 in0.0 mm 0.00 in0.0 mm 0.00 in0.0 mm
06:20 PM 29.7°F-1.3°C 23.0°F-5.0°C 82% 0.6 mph NE1.0 kmh NE 1.3 mph2.1 kmh 29.56 in1001.0 mb 0.00 in0.0 mm 0.00 in0.0 mm 0.00 in0.0 mm
06:25 PM 29.7°F-1.3°C 23.0°F-5.0°C 82% 0.9 mph NE1.4 kmh NE 1.6 mph2.6 kmh 29.56 in1001.0 mb 0.00 in0.0 mm 0.00 in0.0 mm 0.00 in0.0 mm
06:30 PM 29.8°F-1.2°C 23.0°F-5.0°C 82% 0.9 mph NE1.4 kmh NE 1.6 mph2.6 kmh 29.56 in1001.0 mb 0.00 in0.0 mm 0.00 in0.0 mm 0.00 in0.0 mm
06:35 PM 29.5°F-1.4°C 23.0°F-5.0°C 82% 0.4 mph NE0.6 kmh NE 1.3 mph2.1 kmh 29.56 in1001.0 mb 0.00 in0.0 mm 0.00 in0.0 mm 0.00 in0.0 mm
06:40 PM 29.7°F-1.3°C 23.0°F-5.0°C 82% 0.6 mph NE1.0 kmh NE 1.6 mph2.6 kmh 29.56 in1001.0 mb 0.00 in0.0 mm 0.00 in0.0 mm 0.00 in0.0 mm
06:45 PM 29.1°F-1.6°C 23.0°F-5.0°C 82% 0.7 mph NE1.1 kmh NE 1.6 mph2.6 kmh 29.56 in1001.0 mb 0.00 in0.0 mm 0.00 in0.0 mm 0.00 in0.0 mm
06:50 PM 29.5°F-1.4°C 23.0°F-5.0°C 82% 0.8 mph NE1.3 kmh NE 2.0 mph3.2 kmh 29.56 in1001.0 mb 0.00 in0.0 mm 0.00 in0.0 mm 0.00 in0.0 mm
06:55 PM 29.5°F-1.4°C 23.0°F-5.0°C 82% 1.2 mph NE1.9 kmh NE 2.0 mph3.2 kmh 29.56 in1001.0 mb 0.00 in0.0 mm 0.00 in0.0 mm 0.00 in0.0 mm
07:00 PM 29.3°F-1.5°C 23.0°F-5.0°C 83% 1.0 mph NE1.6 kmh NE 1.6 mph2.6 kmh 29.56 in1001.0 mb 0.00 in0.0 mm 0.00 in0.0 mm 0.00 in0.0 mm
07:05 PM 29.1°F-1.6°C 23.0°F-5.0°C 83% 0.8 mph NE1.3 kmh NE 1.6 mph2.6 kmh 29.56 in1001.0 mb 0.00 in0.0 mm 0.00 in0.0 mm 0.00 in0.0 mm
07:10 PM 29.1°F-1.6°C 23.0°F-5.0°C 83% 0.6 mph NE1.0 kmh NE 1.6 mph2.6 kmh 29.56 in1001.0 mb 0.00 in0.0 mm 0.00 in0.0 mm 0.00 in0.0 mm
07:15 PM 29.1°F-1.6°C 23.0°F-5.0°C 83% 0.4 mph NE0.6 kmh NE 0.9 mph1.4 kmh 29.56 in1001.0 mb 0.00 in0.0 mm 0.00 in0.0 mm 0.00 in0.0 mm
07:20 PM 29.1°F-1.6°C 23.0°F-5.0°C 83% 0.7 mph NE1.1 kmh NE 1.3 mph2.1 kmh 29.59 in1002.0 mb 0.00 in0.0 mm 0.00 in0.0 mm 0.00 in0.0 mm
07:25 PM 29.1°F-1.6°C 23.0°F-5.0°C 83% 0.9 mph NE1.4 kmh NE 1.6 mph2.6 kmh 29.59 in1002.0 mb 0.00 in0.0 mm 0.00 in0.0 mm 0.00 in0.0 mm
07:30 PM 28.9°F-1.7°C 23.0°F-5.0°C 83% 0.9 mph NE1.4 kmh NE 1.6 mph2.6 kmh 29.59 in1002.0 mb 0.00 in0.0 mm 0.00 in0.0 mm 0.00 in0.0 mm
07:35 PM 28.8°F-1.8°C 23.0°F-5.0°C 83% 0.6 mph NE1.0 kmh NE 1.6 mph2.6 kmh 29.59 in1002.0 mb 0.00 in0.0 mm 0.00 in0.0 mm 0.00 in0.0 mm
07:40 PM 28.6°F-1.9°C 23.0°F-5.0°C 82% 0.2 mph NE0.3 kmh NE 0.9 mph1.4 kmh 29.59 in1002.0 mb 0.00 in0.0 mm 0.00 in0.0 mm 0.00 in0.0 mm
07:45 PM 28.6°F-1.9°C 23.0°F-5.0°C 82% Calm Calm -- 29.59 in1002.0 mb 0.00 in0.0 mm 0.00 in0.0 mm 0.00 in0.0 mm
07:50 PM 28.4°F-2.0°C 23.0°F-5.0°C 82% 0.2 mph NE0.3 kmh NE 1.1 mph1.8 kmh 29.59 in1002.0 mb 0.00 in0.0 mm 0.00 in0.0 mm 0.00 in0.0 mm
07:55 PM 28.6°F-1.9°C 23.0°F-5.0°C 82% 0.7 mph NE1.1 kmh NE 1.3 mph2.1 kmh 29.59 in1002.0 mb 0.00 in0.0 mm 0.00 in0.0 mm 0.00 in0.0 mm
08:00 PM 28.6°F-1.9°C 23.0°F-5.0°C 83% 1.0 mph NE1.6 kmh NE 1.3 mph2.1 kmh 29.59 in1002.0 mb 0.00 in0.0 mm 0.00 in0.0 mm 0.00 in0.0 mm
08:05 PM 28.4°F-2.0°C 23.0°F-5.0°C 83% 0.7 mph NE1.1 kmh NE 1.3 mph2.1 kmh 29.45 in997.3 mb 0.00 in0.0 mm 0.00 in0.0 mm 0.00 in0.0 mm
08:10 PM 28.4°F-2.0°C 23.0°F-5.0°C 83% 0.7 mph NE1.1 kmh NE 1.3 mph2.1 kmh 29.45 in997.3 mb 0.00 in0.0 mm 0.00 in0.0 mm 0.00 in0.0 mm
08:15 PM 28.8°F-1.8°C 23.0°F-5.0°C 83% 0.9 mph NE1.4 kmh NE 1.1 mph1.8 kmh 29.45 in997.3 mb 0.00 in0.0 mm 0.00 in0.0 mm 0.00 in0.0 mm
08:20 PM 28.8°F-1.8°C 23.0°F-5.0°C 83% 0.8 mph NE1.3 kmh NE 1.3 mph2.1 kmh 29.59 in1002.0 mb 0.00 in0.0 mm 0.00 in0.0 mm 0.00 in0.0 mm
08:25 PM 28.6°F-1.9°C 23.0°F-5.0°C 83% 0.7 mph NE1.1 kmh NE 1.6 mph2.6 kmh 29.59 in1002.0 mb 0.00 in0.0 mm 0.00 in0.0 mm 0.00 in0.0 mm
08:30 PM 28.4°F-2.0°C 23.0°F-5.0°C 83% 0.7 mph NE1.1 kmh NE 1.6 mph2.6 kmh 29.59 in1002.0 mb 0.00 in0.0 mm 0.00 in0.0 mm 0.00 in0.0 mm
08:35 PM 28.4°F-2.0°C 23.0°F-5.0°C 83% 1.1 mph NE1.8 kmh NE 2.2 mph3.5 kmh 29.56 in1001.0 mb 0.00 in0.0 mm 0.00 in0.0 mm 0.00 in0.0 mm
08:40 PM 28.2°F-2.1°C 23.0°F-5.0°C 83% 1.5 mph NE2.4 kmh NE 2.5 mph4.0 kmh 29.56 in1001.0 mb 0.00 in0.0 mm 0.00 in0.0 mm 0.00 in0.0 mm
08:45 PM 28.2°F-2.1°C 23.0°F-5.0°C 83% 0.8 mph NE1.3 kmh NE 2.5 mph4.0 kmh 29.56 in1001.0 mb 0.00 in0.0 mm 0.00 in0.0 mm 0.00 in0.0 mm
08:50 PM 28.2°F-2.1°C 23.0°F-5.0°C 83% 0.3 mph NE0.5 kmh NE 1.1 mph1.8 kmh 29.59 in1002.0 mb 0.00 in0.0 mm 0.00 in0.0 mm 0.00 in0.0 mm
08:55 PM 28.0°F-2.2°C 23.0°F-5.0°C 83% 0.8 mph NE1.3 kmh NE 1.3 mph2.1 kmh 29.59 in1002.0 mb 0.00 in0.0 mm 0.00 in0.0 mm 0.00 in0.0 mm
09:00 PM 27.9°F-2.3°C 21.2°F-6.0°C 83% 1.0 mph NE1.6 kmh NE 1.3 mph2.1 kmh 29.59 in1002.0 mb 0.00 in0.0 mm 0.00 in0.0 mm 0.00 in0.0 mm
09:05 PM 28.0°F-2.2°C 23.0°F-5.0°C 83% 0.5 mph NE0.8 kmh NE 1.3 mph2.1 kmh 29.50 in999.0 mb 0.00 in0.0 mm 0.00 in0.0 mm 0.00 in0.0 mm
09:10 PM 27.9°F-2.3°C 21.2°F-6.0°C 83% 0.2 mph NE0.3 kmh NE 0.9 mph1.4 kmh 29.50 in999.0 mb 0.00 in0.0 mm 0.00 in0.0 mm 0.00 in0.0 mm
09:15 PM 27.9°F-2.3°C 21.2°F-6.0°C 83% 0.4 mph NE0.6 kmh NE 1.1 mph1.8 kmh 29.50 in999.0 mb 0.00 in0.0 mm 0.00 in0.0 mm 0.00 in0.0 mm
09:20 PM 27.7°F-2.4°C 21.2°F-6.0°C 83% 0.2 mph NE0.3 kmh NE 1.1 mph1.8 kmh 29.50 in999.0 mb 0.00 in0.0 mm 0.00 in0.0 mm 0.00 in0.0 mm
09:25 PM 27.9°F-2.3°C 21.2°F-6.0°C 83% 0.1 mph NE0.2 kmh NE 0.9 mph1.4 kmh 29.50 in999.0 mb 0.00 in0.0 mm 0.00 in0.0 mm 0.00 in0.0 mm
09:30 PM 27.9°F-2.3°C 21.2°F-6.0°C 83% 0.1 mph NE0.2 kmh NE 0.9 mph1.4 kmh 29.50 in999.0 mb 0.00 in0.0 mm 0.00 in0.0 mm 0.00 in0.0 mm
09:35 PM 28.2°F-2.1°C 23.0°F-5.0°C 83% 0.1 mph NE0.2 kmh NE 0.9 mph1.4 kmh 29.50 in999.0 mb 0.00 in0.0 mm 0.00 in0.0 mm 0.00 in0.0 mm
09:40 PM 28.4°F-2.0°C 23.0°F-5.0°C 83% Calm Calm -- 29.50 in999.0 mb 0.00 in0.0 mm 0.00 in0.0 mm 0.00 in0.0 mm
09:45 PM 28.8°F-1.8°C 23.0°F-5.0°C 83% 0.1 mph NE0.2 kmh NE 0.9 mph1.4 kmh 29.50 in999.0 mb 0.00 in0.0 mm 0.00 in0.0 mm 0.00 in0.0 mm
09:50 PM 28.9°F-1.7°C 23.0°F-5.0°C 83% 0.3 mph NE0.5 kmh NE 1.1 mph1.8 kmh 29.50 in999.0 mb 0.00 in0.0 mm 0.00 in0.0 mm 0.00 in0.0 mm
09:55 PM 28.9°F-1.7°C 23.0°F-5.0°C 83% 0.2 mph NE0.3 kmh NE 1.1 mph1.8 kmh 29.50 in999.0 mb 0.00 in0.0 mm 0.00 in0.0 mm 0.00 in0.0 mm
10:00 PM 29.1°F-1.6°C 23.0°F-5.0°C 83% 0.3 mph NE0.5 kmh NE 1.1 mph1.8 kmh 29.50 in999.0 mb 0.00 in0.0 mm 0.00 in0.0 mm 0.00 in0.0 mm
10:05 PM 29.5°F-1.4°C 23.0°F-5.0°C 83% 0.5 mph NE0.8 kmh NE 1.1 mph1.8 kmh 29.47 in998.0 mb 0.00 in0.0 mm 0.00 in0.0 mm 0.00 in0.0 mm
10:10 PM 29.5°F-1.4°C 23.0°F-5.0°C 83% 0.3 mph ENE0.5 kmh ENE 1.1 mph1.8 kmh 29.47 in998.0 mb 0.00 in0.0 mm 0.00 in0.0 mm 0.00 in0.0 mm
10:15 PM 29.5°F-1.4°C 23.0°F-5.0°C 83% 0.1 mph ENE0.2 kmh ENE 0.9 mph1.4 kmh 29.47 in998.0 mb 0.00 in0.0 mm 0.00 in0.0 mm 0.00 in0.0 mm
10:20 PM 29.7°F-1.3°C 23.0°F-5.0°C 83% 0.1 mph NE0.2 kmh NE 0.9 mph1.4 kmh 29.53 in1000.0 mb 0.00 in0.0 mm 0.00 in0.0 mm 0.00 in0.0 mm
10:25 PM 30.0°F-1.1°C 24.8°F-4.0°C 83% 0.1 mph NE0.2 kmh NE 0.9 mph1.4 kmh 29.53 in1000.0 mb 0.00 in0.0 mm 0.00 in0.0 mm 0.00 in0.0 mm
10:30 PM 30.0°F-1.1°C 24.8°F-4.0°C 83% Calm Calm -- 29.53 in1000.0 mb 0.00 in0.0 mm 0.00 in0.0 mm 0.00 in0.0 mm
10:35 PM 30.0°F-1.1°C 24.8°F-4.0°C 83% Calm Calm -- 29.53 in1000.0 mb 0.00 in0.0 mm 0.00 in0.0 mm 0.00 in0.0 mm
10:40 PM 30.0°F-1.1°C 24.8°F-4.0°C 83% Calm Calm -- 29.53 in1000.0 mb 0.00 in0.0 mm 0.00 in0.0 mm 0.00 in0.0 mm
10:45 PM 30.2°F-1.0°C 24.8°F-4.0°C 83% 0.2 mph NE0.3 kmh NE 1.1 mph1.8 kmh 29.53 in1000.0 mb 0.00 in0.0 mm 0.00 in0.0 mm 0.00 in0.0 mm
10:50 PM 30.2°F-1.0°C 24.8°F-4.0°C 84% 0.5 mph NE0.8 kmh NE 1.3 mph2.1 kmh 29.53 in1000.0 mb 0.00 in0.0 mm 0.00 in0.0 mm 0.00 in0.0 mm
10:55 PM 30.2°F-1.0°C 24.8°F-4.0°C 84% 0.6 mph NE1.0 kmh NE 1.3 mph2.1 kmh 29.53 in1000.0 mb 0.00 in0.0 mm 0.00 in0.0 mm 0.00 in0.0 mm
11:00 PM 30.2°F-1.0°C 24.8°F-4.0°C 84% 0.3 mph NE0.5 kmh NE 1.3 mph2.1 kmh 29.53 in1000.0 mb 0.00 in0.0 mm 0.00 in0.0 mm 0.00 in0.0 mm
11:05 PM 30.2°F-1.0°C 24.8°F-4.0°C 83% 0.1 mph NE0.2 kmh NE 1.1 mph1.8 kmh 29.53 in1000.0 mb 0.00 in0.0 mm 0.00 in0.0 mm 0.00 in0.0 mm
11:10 PM 30.4°F-0.9°C 24.8°F-4.0°C 83% 0.3 mph NE0.5 kmh NE 1.1 mph1.8 kmh 29.53 in1000.0 mb 0.00 in0.0 mm 0.00 in0.0 mm 0.00 in0.0 mm
11:15 PM 30.4°F-0.9°C 24.8°F-4.0°C 83% 0.2 mph NE0.3 kmh NE 1.1 mph1.8 kmh 29.53 in1000.0 mb 0.00 in0.0 mm 0.00 in0.0 mm 0.00 in0.0 mm
11:20 PM 30.4°F-0.9°C 24.8°F-4.0°C 83% 0.2 mph NE0.3 kmh NE 1.1 mph1.8 kmh 29.53 in1000.0 mb 0.00 in0.0 mm 0.00 in0.0 mm 0.00 in0.0 mm
11:25 PM 30.6°F-0.8°C 24.8°F-4.0°C 83% 0.2 mph NE0.3 kmh NE 0.9 mph1.4 kmh 29.53 in1000.0 mb 0.00 in0.0 mm 0.00 in0.0 mm 0.00 in0.0 mm
11:30 PM 30.6°F-0.8°C 24.8°F-4.0°C 84% 0.1 mph NE0.2 kmh NE 0.9 mph1.4 kmh 29.53 in1000.0 mb 0.00 in0.0 mm 0.00 in0.0 mm 0.00 in0.0 mm
11:35 PM 30.7°F-0.7°C 24.8°F-4.0°C 84% Calm Calm -- 29.50 in999.0 mb 0.00 in0.0 mm 0.00 in0.0 mm 0.00 in0.0 mm
11:40 PM 30.7°F-0.7°C 24.8°F-4.0°C 84% Calm Calm -- 29.50 in999.0 mb 0.00 in0.0 mm 0.00 in0.0 mm 0.00 in0.0 mm
11:45 PM 30.9°F-0.6°C 24.8°F-4.0°C 84% Calm Calm -- 29.50 in999.0 mb 0.00 in0.0 mm 0.00 in0.0 mm 0.00 in0.0 mm
11:50 PM 30.9°F-0.6°C 24.8°F-4.0°C 84% Calm Calm -- 29.50 in999.0 mb 0.00 in0.0 mm 0.00 in0.0 mm 0.00 in0.0 mm
11:55 PM 31.1°F-0.5°C 24.8°F-4.0°C 84% Calm Calm -- 29.50 in999.0 mb 0.00 in0.0 mm 0.00 in0.0 mm 0.00 in0.0 mm